Time;durP1;ratioP1;P1;durP2;ratioP2;P2;SDS_P1;SDS_P2;PMS_P1;PMS_P2;Temp;Humidity;BMP_temperature;BMP_pressure;BME280_temperature;BME280_humidity;BME280_pressure;Samples;Min_cycle;Max_cycle;Signal;HPM_P1;HPM_P2
2022/02/16 00:00:30;;;;;;;24.17;13.23;;;;;;;1.21;65.74;95130.25;5071797;28;20025;-67
2022/02/16 00:02:56;;;;;;;22.10;13.45;;;;;;;1.16;66.71;95142.41;5092102;28;20081;-67
2022/02/16 00:05:21;;;;;;;24.15;11.98;;;;;;;1.13;66.78;95139.97;5093412;28;20413;-67
2022/02/16 00:07:47;;;;;;;23.65;12.95;;;;;;;1.01;66.82;95128.53;5092199;28;20522;-67
2022/02/16 00:10:14;;;;;;;26.83;16.40;;;;;;;1.06;67.29;95125.78;5093286;28;20023;-67
2022/02/16 00:12:39;;;;;;;25.55;16.33;;;;;;;1.05;66.76;95119.81;5091851;28;20038;-68
2022/02/16 00:15:05;;;;;;;23.73;14.70;;;;;;;1.03;66.72;95106.28;5074700;28;20052;-67
2022/02/16 00:17:31;;;;;;;24.60;14.68;;;;;;;0.99;66.80;95117.50;5093299;28;20032;-67
2022/02/16 00:19:56;;;;;;;25.85;14.95;;;;;;;0.94;67.29;95111.75;5093048;28;20093;-67
2022/02/16 00:22:21;;;;;;;23.92;13.88;;;;;;;0.93;67.63;95109.25;5074756;28;20101;-67
2022/02/16 00:24:47;;;;;;;25.50;15.40;;;;;;;1.01;67.64;95117.47;5092900;28;20439;-67
2022/02/16 00:27:12;;;;;;;27.63;18.13;;;;;;;0.98;67.69;95126.09;5074698;28;20473;-68
2022/02/16 00:29:38;;;;;;;28.13;16.73;;;;;;;0.97;67.94;95126.13;5092704;28;20024;-68
2022/02/16 00:32:03;;;;;;;29.83;16.58;;;;;;;0.98;68.55;95127.81;5074575;28;20081;-67
2022/02/16 00:34:29;;;;;;;30.48;18.15;;;;;;;0.98;68.85;95109.91;5091289;28;20157;-67
2022/02/16 00:36:56;;;;;;;32.47;18.05;;;;;;;1.05;68.87;95101.91;5091460;28;20078;-67
2022/02/16 00:39:22;;;;;;;30.88;16.55;;;;;;;1.09;68.57;95110.31;5092563;28;20390;-68
2022/02/16 00:41:47;;;;;;;30.15;18.55;;;;;;;1.17;68.62;95117.66;5090765;28;20027;-68
2022/02/16 00:44:12;;;;;;;31.92;17.98;;;;;;;1.22;68.09;95110.63;5091212;28;20031;-68
2022/02/16 00:46:38;;;;;;;33.97;18.52;;;;;;;1.19;67.59;95108.19;5090973;28;20468;-68
2022/02/16 00:49:03;;;;;;;31.83;18.75;;;;;;;1.27;67.97;95109.53;5092447;28;20024;-68
2022/02/16 00:51:29;;;;;;;33.03;18.48;;;;;;;1.34;67.59;95100.72;5092250;28;20036;-67
2022/02/16 00:53:54;;;;;;;30.17;18.67;;;;;;;1.39;67.65;95100.50;5092303;28;20020;-67
2022/02/16 00:56:19;;;;;;;33.40;18.67;;;;;;;1.39;67.53;95089.44;5092580;28;20040;-68
2022/02/16 00:58:45;;;;;;;29.75;17.95;;;;;;;1.48;67.62;95083.94;5090971;28;20027;-68
2022/02/16 01:01:10;;;;;;;31.33;18.30;;;;;;;1.51;67.32;95094.88;5086723;28;20074;-68
2022/02/16 01:03:37;;;;;;;30.42;19.40;;;;;;;1.52;66.96;95093.13;5053930;28;20103;-68
2022/02/16 01:06:03;;;;;;;32.53;18.77;;;;;;;1.58;67.16;95089.47;5054246;28;20491;-67
2022/02/16 01:08:29;;;;;;;32.85;17.63;;;;;;;1.58;66.82;95079.22;5070537;28;20221;-68
2022/02/16 01:10:54;;;;;;;27.88;17.77;;;;;;;1.68;66.76;95091.56;5071518;28;20391;-67
2022/02/16 01:13:20;;;;;;;37.13;20.63;;;;;;;1.62;66.01;95088.47;5070430;28;20036;-68
2022/02/16 01:15:45;;;;;;;53.50;26.85;;;;;;;1.50;66.68;95100.03;5053545;28;20057;-68
2022/02/16 01:18:11;;;;;;;42.22;24.45;;;;;;;1.45;66.70;95095.13;5053769;28;20041;-67
2022/02/16 01:20:36;;;;;;;40.15;22.45;;;;;;;1.44;66.83;95087.50;5070404;28;20036;-68
2022/02/16 01:23:02;;;;;;;36.40;20.88;;;;;;;1.47;66.96;95084.81;5070310;28;20044;-69
2022/02/16 01:25:27;;;;;;;35.95;18.67;;;;;;;1.57;66.58;95093.78;5070163;28;20059;-68
2022/02/16 01:27:52;;;;;;;31.08;18.55;;;;;;;1.59;66.29;95104.78;5071428;28;20037;-68
2022/02/16 01:30:18;;;;;;;28.63;17.33;;;;;;;1.51;66.30;95099.16;5070183;28;20028;-68
2022/02/16 01:32:43;;;;;;;32.42;17.33;;;;;;;1.44;66.77;95090.88;5037117;28;20048;-68
2022/02/16 01:35:09;;;;;;;25.75;15.77;;;;;;;1.45;66.89;95099.41;5053375;28;20029;-68
2022/02/16 01:37:34;;;;;;;30.35;17.65;;;;;;;1.36;67.22;95079.31;5071283;28;20024;-68
2022/02/16 01:40:00;;;;;;;31.05;16.15;;;;;;;1.44;67.67;95074.69;5053236;28;20433;-67
2022/02/16 01:42:25;;;;;;;29.75;16.42;;;;;;;1.53;66.89;95066.63;5069968;28;20025;-67
2022/02/16 01:44:50;;;;;;;26.13;16.40;;;;;;;1.61;66.91;95056.03;5071215;28;20032;-67
2022/02/16 01:47:16;;;;;;;27.63;15.95;;;;;;;1.61;66.53;95038.94;5069850;28;20036;-68
2022/02/16 01:49:41;;;;;;;26.10;15.50;;;;;;;1.72;66.35;95051.28;5053121;28;20123;-68
2022/02/16 01:52:07;;;;;;;28.15;15.63;;;;;;;1.77;66.13;95045.06;5069388;28;20071;-68
2022/02/16 01:54:33;;;;;;;28.50;16.58;;;;;;;1.76;66.25;95043.41;5053093;28;20025;-68
2022/02/16 01:56:58;;;;;;;27.55;16.42;;;;;;;1.70;66.00;95038.56;5036552;28;20420;-68
2022/02/16 01:59:24;;;;;;;29.85;16.35;;;;;;;1.67;66.13;95018.22;5053058;28;20033;-67
2022/02/16 02:01:50;;;;;;;23.88;15.75;;;;;;;1.70;66.36;95025.75;5081962;28;20425;-68
2022/02/16 02:04:15;;;;;;;29.33;16.00;;;;;;;1.76;66.04;95024.66;5089857;28;20028;-67
2022/02/16 02:06:41;;;;;;;24.58;15.45;;;;;;;1.78;65.89;95018.56;5091203;28;20063;-67
2022/02/16 02:09:06;;;;;;;24.35;14.70;;;;;;;1.84;65.11;95022.56;5072977;28;20321;-68
2022/02/16 02:11:32;;;;;;;24.63;16.15;;;;;;;1.83;65.52;95020.88;5089687;28;20042;-68
2022/02/16 02:14:01;;;;;;;25.30;15.07;;;;;;;1.91;65.51;95025.69;5089734;28;20024;-68
2022/02/16 02:16:27;;;;;;;27.30;14.48;;;;;;;2.02;65.09;95023.44;5073372;28;20497;-68
2022/02/16 02:18:52;;;;;;;25.70;15.38;;;;;;;2.05;64.43;95018.19;5089732;28;20063;-69
2022/02/16 02:21:18;;;;;;;25.05;14.10;;;;;;;2.02;65.35;95020.88;5089726;28;20032;-67
2022/02/16 02:23:44;;;;;;;28.27;16.50;;;;;;;2.02;65.17;95018.31;5089669;28;20097;-68
2022/02/16 02:26:11;;;;;;;34.00;19.30;;;;;;;2.04;65.91;95024.22;5072917;28;20085;-68
2022/02/16 02:28:36;;;;;;;32.92;19.65;;;;;;;2.01;66.20;95019.25;5090808;28;20492;-68
2022/02/16 02:31:02;;;;;;;37.25;21.42;;;;;;;2.06;65.57;95040.34;5089726;28;20032;-68
2022/02/16 02:33:27;;;;;;;38.35;22.08;;;;;;;2.05;65.81;95023.31;5089465;28;20161;-68
2022/02/16 02:35:53;;;;;;;40.85;23.23;;;;;;;2.13;65.44;95034.03;5072619;28;20497;-68
2022/02/16 02:38:18;;;;;;;43.67;21.73;;;;;;;2.16;65.16;95040.75;5089574;28;20517;-68
2022/02/16 02:40:43;;;;;;;42.33;22.20;;;;;;;2.13;65.52;95031.47;5089340;28;20035;-67
2022/02/16 02:43:09;;;;;;;33.70;19.77;;;;;;;2.11;65.81;95033.25;5055945;28;20032;-68
2022/02/16 02:45:34;;;;;;;54.47;26.92;;;;;;;2.08;65.42;95050.53;5089235;28;20028;-68
2022/02/16 02:48:00;;;;;;;48.30;26.13;;;;;;;2.00;65.56;95059.38;5072595;28;20078;-68
2022/02/16 02:50:25;;;;;;;52.28;27.20;;;;;;;1.98;66.09;95045.00;5089321;28;20028;-67
2022/02/16 02:52:51;;;;;;;62.42;32.97;;;;;;;1.97;65.11;95036.47;5089434;28;20044;-67
2022/02/16 02:55:16;;;;;;;71.25;35.55;;;;;;;1.94;66.40;95038.34;5090399;28;20028;-67
2022/02/16 02:57:42;;;;;;;67.88;34.95;;;;;;;1.85;66.07;95056.69;5089348;28;20042;-67
2022/02/16 03:00:09;;;;;;;63.75;34.35;;;;;;;1.86;66.19;95048.94;5090627;28;20028;-67
2022/02/16 03:02:34;;;;;;;57.13;34.08;;;;;;;1.79;65.99;95060.38;5071758;28;20041;-67
2022/02/16 03:05:01;;;;;;;56.72;29.73;;;;;;;1.74;66.56;95055.44;5070511;28;20029;-67
2022/02/16 03:07:27;;;;;;;40.58;22.63;;;;;;;1.72;66.23;95057.22;5072679;28;20037;-67
2022/02/16 03:09:52;;;;;;;34.10;21.13;;;;;;;1.72;66.22;95056.41;5072673;28;20029;-67
2022/02/16 03:12:18;;;;;;;32.75;17.10;;;;;;;1.78;66.04;95048.44;5055968;28;20041;-67
2022/02/16 03:14:43;;;;;;;27.70;15.93;;;;;;;1.84;65.61;95044.78;5073608;28;20410;-68
2022/02/16 03:17:08;;;;;;;28.70;16.95;;;;;;;1.86;65.65;95045.53;5056125;28;20517;-67
2022/02/16 03:19:34;;;;;;;33.10;18.67;;;;;;;1.79;66.14;95042.44;5073836;28;20062;-68
2022/02/16 03:21:59;;;;;;;24.08;14.05;;;;;;;1.74;66.03;95039.25;5072672;28;20074;-68
2022/02/16 03:24:25;;;;;;;24.38;13.07;;;;;;;1.75;65.98;95028.91;5055757;28;20052;-67
2022/02/16 03:26:50;;;;;;;22.48;13.05;;;;;;;1.85;66.63;95041.31;5073628;28;20517;-67
2022/02/16 03:29:15;;;;;;;31.25;15.18;;;;;;;1.90;66.58;95035.09;5055859;28;20025;-67
2022/02/16 03:31:42;;;;;;;28.55;13.20;;;;;;;1.90;66.05;95027.41;5073571;28;20024;-68
2022/02/16 03:34:08;;;;;;;23.98;12.60;;;;;;;1.83;66.86;95032.88;5072329;28;20113;-68
2022/02/16 03:36:33;;;;;;;19.25;12.80;;;;;;;1.85;65.97;95049.00;5072570;28;20062;-68
2022/02/16 03:38:58;;;;;;;23.15;13.40;;;;;;;1.90;65.25;95041.97;5072271;28;20016;-67
2022/02/16 03:41:24;;;;;;;24.73;12.88;;;;;;;1.99;65.22;95033.84;5055403;28;20055;-67
2022/02/16 03:43:49;;;;;;;22.60;12.15;;;;;;;1.99;65.18;95044.09;5073479;28;20029;-68
2022/02/16 03:46:15;;;;;;;22.83;12.75;;;;;;;2.01;65.42;95048.25;5055292;28;20025;-68
2022/02/16 03:48:40;;;;;;;20.00;12.13;;;;;;;2.03;64.78;95034.53;5073335;28;20029;-68
2022/02/16 03:51:06;;;;;;;24.88;13.50;;;;;;;2.03;65.07;95037.09;5072223;28;20021;-67
2022/02/16 03:53:31;;;;;;;23.17;12.75;;;;;;;2.10;65.76;95052.13;5055345;28;20039;-67
2022/02/16 03:55:57;;;;;;;21.63;12.10;;;;;;;2.16;65.34;95048.44;5072135;28;20044;-68
2022/02/16 03:58:22;;;;;;;20.75;12.82;;;;;;;2.07;65.30;95031.75;5073167;28;20029;-68
2022/02/16 04:00:47;;;;;;;22.25;13.13;;;;;;;2.14;64.81;95030.56;5074211;28;20086;-68
2022/02/16 04:03:13;;;;;;;22.92;13.02;;;;;;;2.17;64.42;95035.56;5093337;28;20043;-68
2022/02/16 04:05:40;;;;;;;22.92;12.73;;;;;;;2.21;64.97;95029.38;5092122;28;20028;-68
2022/02/16 04:08:06;;;;;;;24.30;13.30;;;;;;;2.19;64.39;95015.81;5091933;28;20080;-68
2022/02/16 04:10:31;;;;;;;24.08;13.23;;;;;;;2.15;65.20;95022.00;5075166;28;20028;-67
2022/02/16 04:12:57;;;;;;;22.65;13.88;;;;;;;2.21;64.91;95023.44;5093369;28;20024;-67
2022/02/16 04:15:22;;;;;;;24.42;13.63;;;;;;;2.27;65.06;95023.13;5092333;28;20575;-68
2022/02/16 04:17:47;;;;;;;25.33;13.88;;;;;;;2.23;64.72;95022.47;5091908;28;20053;-67
2022/02/16 04:20:13;;;;;;;23.38;13.20;;;;;;;2.17;64.58;95012.50;5093076;28;20036;-67
2022/02/16 04:22:41;;;;;;;23.63;13.55;;;;;;;2.29;64.06;94997.44;5074838;28;20040;-68
2022/02/16 04:25:07;;;;;;;22.90;13.77;;;;;;;2.32;64.24;94998.13;5091654;28;20485;-68
2022/02/16 04:27:33;;;;;;;24.02;13.15;;;;;;;2.39;64.52;95002.03;5092678;28;20036;-67
2022/02/16 04:29:58;;;;;;;21.30;13.10;;;;;;;2.50;63.78;95006.66;5092853;28;20050;-67
2022/02/16 04:32:23;;;;;;;23.48;12.98;;;;;;;2.51;63.74;94999.78;5091430;28;20429;-68
2022/02/16 04:34:49;;;;;;;23.92;13.40;;;;;;;2.52;64.10;95002.28;5092728;28;20020;-67
2022/02/16 04:37:14;;;;;;;25.73;14.05;;;;;;;2.56;64.12;94998.66;5091465;28;20047;-68
2022/02/16 04:39:40;;;;;;;23.77;13.77;;;;;;;2.65;63.60;95007.66;5074469;28;20035;-67
2022/02/16 04:42:05;;;;;;;24.50;13.57;;;;;;;2.64;63.91;95000.84;5057783;28;20032;-68
2022/02/16 04:44:31;;;;;;;27.15;13.95;;;;;;;2.65;63.55;95016.19;5092408;28;20051;-68
2022/02/16 04:46:56;;;;;;;21.73;13.00;;;;;;;2.64;62.96;95003.41;5091169;28;20551;-68
2022/02/16 04:49:22;;;;;;;22.90;14.45;;;;;;;2.75;62.79;95013.16;5092403;28;20032;-67
2022/02/16 04:51:47;;;;;;;21.92;13.00;;;;;;;2.70;63.11;95010.81;5074245;28;20036;-67
2022/02/16 04:54:12;;;;;;;22.77;13.80;;;;;;;2.78;63.28;95008.72;5074115;28;20489;-68
2022/02/16 04:56:38;;;;;;;27.50;13.85;;;;;;;2.74;63.22;95014.91;5092187;28;20024;-68
2022/02/16 04:59:03;;;;;;;27.90;14.70;;;;;;;2.66;63.58;95015.28;5092296;28;20025;-67
2022/02/16 05:01:29;;;;;;;43.88;22.42;;;;;;;2.70;63.85;95021.06;5083728;28;20032;-68
2022/02/16 05:03:54;;;;;;;28.95;17.02;;;;;;;2.72;63.62;95005.63;5070686;28;20032;-68
2022/02/16 05:06:20;;;;;;;23.70;14.02;;;;;;;2.67;63.72;95006.69;5070630;28;20089;-68
2022/02/16 05:08:45;;;;;;;26.17;14.40;;;;;;;2.67;63.85;95005.84;5071770;28;20028;-67
2022/02/16 05:11:10;;;;;;;25.60;15.23;;;;;;;2.71;63.64;95016.81;5070658;28;20100;-68
2022/02/16 05:13:36;;;;;;;24.08;13.00;;;;;;;2.69;64.21;95007.41;5072484;28;20083;-68
2022/02/16 05:16:01;;;;;;;22.65;13.82;;;;;;;2.67;64.04;95014.38;5081463;28;20063;-68
2022/02/16 05:18:27;;;;;;;20.65;12.57;;;;;;;2.72;64.03;95010.75;5081792;28;20174;-67
2022/02/16 05:20:52;;;;;;;24.60;13.70;;;;;;;2.71;63.47;95009.09;5084367;28;20039;-68
2022/02/16 05:23:18;;;;;;;23.05;13.20;;;;;;;2.74;63.72;95002.06;5084440;28;20032;-68
2022/02/16 05:25:43;;;;;;;35.78;20.15;;;;;;;2.84;63.51;95003.28;5067489;28;20028;-67
2022/02/16 05:28:08;;;;;;;46.22;24.83;;;;;;;2.82;63.76;95005.09;5080968;28;20044;-67
2022/02/16 05:30:34;;;;;;;46.30;25.92;;;;;;;2.78;64.50;95000.19;5063298;28;20040;-68
2022/02/16 05:33:01;;;;;;;53.15;28.75;;;;;;;2.73;64.70;94994.44;5084571;28;20028;-68
2022/02/16 05:35:26;;;;;;;46.85;25.35;;;;;;;2.61;65.05;94996.72;5084573;28;20042;-68
2022/02/16 05:37:52;;;;;;;33.17;17.52;;;;;;;2.61;64.80;95004.41;5081285;28;20149;-67
2022/02/16 05:40:17;;;;;;;26.42;15.10;;;;;;;2.57;64.04;95000.34;5084364;28;20485;-67
2022/02/16 05:42:43;;;;;;;22.65;13.30;;;;;;;2.72;63.99;95008.19;5067653;28;20094;-67
2022/02/16 05:45:09;;;;;;;32.53;16.33;;;;;;;2.76;63.98;95025.94;5081623;28;20024;-67
2022/02/16 05:47:34;;;;;;;24.48;14.07;;;;;;;2.71;64.33;95024.50;5085361;28;20519;-67
2022/02/16 05:49:59;;;;;;;28.65;14.45;;;;;;;2.73;63.90;95025.22;5084145;28;20071;-67
2022/02/16 05:52:25;;;;;;;24.73;13.65;;;;;;;2.80;63.87;95027.44;5081599;28;20085;-68
2022/02/16 05:54:50;;;;;;;28.65;15.30;;;;;;;2.79;63.56;95022.38;5086300;28;20023;-67
2022/02/16 05:57:16;;;;;;;25.80;13.57;;;;;;;2.74;63.67;95016.66;5083279;28;20512;-68
2022/02/16 05:59:41;;;;;;;27.35;14.77;;;;;;;2.83;63.70;95022.16;5083777;28;20463;-67
2022/02/16 06:02:06;;;;;;;30.23;14.60;;;;;;;2.96;62.68;95009.53;5082690;28;20020;-67
2022/02/16 06:04:32;;;;;;;28.45;15.57;;;;;;;2.91;63.32;95004.63;5069264;28;20038;-68
2022/02/16 06:06:58;;;;;;;42.03;21.65;;;;;;;3.01;63.43;94999.03;5084969;28;20030;-67
2022/02/16 06:09:23;;;;;;;43.92;22.52;;;;;;;2.93;64.01;95003.75;5067378;28;20043;-67
2022/02/16 06:11:49;;;;;;;35.85;18.85;;;;;;;2.89;64.41;94995.34;5084895;28;20532;-68
2022/02/16 06:14:14;;;;;;;26.83;15.85;;;;;;;3.01;63.35;95006.72;5083165;28;20413;-67
2022/02/16 06:16:39;;;;;;;58.55;27.75;;;;;;;3.00;63.94;95008.47;5080438;28;20040;-67
2022/02/16 06:19:05;;;;;;;144.13;62.15;;;;;;;3.01;64.63;95012.72;5074900;28;20036;-67
2022/02/16 06:21:31;;;;;;;133.15;61.22;;;;;;;2.86;65.11;95004.03;5081402;28;20036;-68
2022/02/16 06:23:56;;;;;;;134.43;63.83;;;;;;;2.83;65.15;95009.31;5066173;28;20036;-67
2022/02/16 06:26:21;;;;;;;134.13;62.90;;;;;;;2.73;66.07;95004.72;5084947;28;20035;-67
2022/02/16 06:28:47;;;;;;;132.43;65.60;;;;;;;2.79;65.69;95025.78;5084882;28;20032;-67
2022/02/16 06:31:13;;;;;;;155.73;70.93;;;;;;;2.76;66.33;95022.50;5084729;28;20470;-67
2022/02/16 06:33:38;;;;;;;112.07;52.83;;;;;;;2.78;65.66;95023.28;5086672;28;20039;-68
2022/02/16 06:36:04;;;;;;;115.13;57.60;;;;;;;2.76;65.61;95025.06;5084173;28;20438;-67
2022/02/16 06:38:29;;;;;;;109.63;53.53;;;;;;;2.82;65.80;95033.31;5085823;28;20035;-67
2022/02/16 06:40:55;;;;;;;105.93;51.85;;;;;;;2.81;65.76;95023.13;5071010;28;20717;-67
2022/02/16 06:43:20;;;;;;;113.80;53.60;;;;;;;2.78;66.34;95029.22;5086573;28;20081;-67
2022/02/16 06:45:46;;;;;;;125.13;53.58;;;;;;;2.74;66.68;95032.88;5089854;28;20081;-67
2022/02/16 06:48:11;;;;;;;110.10;53.28;;;;;;;2.75;66.33;95031.94;5088919;28;20044;-67
2022/02/16 06:50:37;;;;;;;117.13;55.85;;;;;;;2.86;66.00;95039.13;5087919;28;20425;-67
2022/02/16 06:53:02;;;;;;;135.88;61.70;;;;;;;2.87;66.34;95028.81;5084168;28;20476;-67
2022/02/16 06:55:28;;;;;;;118.28;55.42;;;;;;;2.88;65.98;95045.03;5077777;28;20024;-67
2022/02/16 06:57:53;;;;;;;119.70;56.85;;;;;;;2.93;65.78;95032.81;5084131;28;20099;-67
2022/02/16 07:00:18;;;;;;;125.50;59.83;;;;;;;2.93;65.72;95035.38;5065314;28;20844;-67
2022/02/16 07:02:44;;;;;;;123.57;60.78;;;;;;;2.87;66.52;95026.22;5083138;28;20032;-67
2022/02/16 07:05:10;;;;;;;134.95;64.40;;;;;;;2.96;66.33;95032.66;5082751;28;20024;-67
2022/02/16 07:07:35;;;;;;;128.95;61.78;;;;;;;2.89;66.80;95016.69;5083691;28;20718;-67
2022/02/16 07:10:01;;;;;;;131.05;61.03;;;;;;;2.97;66.49;95034.28;5066856;28;20548;-67
2022/02/16 07:12:26;;;;;;;117.10;56.47;;;;;;;2.96;67.61;95031.81;5087941;28;20028;-67
2022/02/16 07:14:56;;;;;;;116.03;52.90;;;;;;;3.02;66.32;95027.19;5090889;28;20390;-67
2022/02/16 07:17:21;;;;;;;94.82;49.92;;;;;;;3.12;66.55;95027.56;5090783;28;20329;-67
2022/02/16 07:19:47;;;;;;;96.53;47.92;;;;;;;3.21;66.48;95024.56;5087760;28;20040;-67
2022/02/16 07:22:12;;;;;;;79.93;41.85;;;;;;;3.32;65.26;95024.00;5084437;28;20036;-67
2022/02/16 07:24:38;;;;;;;79.93;38.53;;;;;;;3.54;64.64;95021.16;5085173;28;20488;-67
2022/02/16 07:27:03;;;;;;;69.55;37.75;;;;;;;3.68;64.12;95007.59;5081753;28;20040;-67
2022/02/16 07:29:29;;;;;;;66.93;35.45;;;;;;;3.86;63.74;95008.34;5065773;28;20089;-67
2022/02/16 07:31:54;;;;;;;85.28;40.35;;;;;;;4.04;62.74;95009.94;5050519;28;20060;-67
2022/02/16 07:34:19;;;;;;;69.63;39.00;;;;;;;4.13;62.59;95016.34;5087610;28;20069;-67
2022/02/16 07:36:45;;;;;;;74.43;42.80;;;;;;;4.27;62.62;94993.25;5087112;28;20093;-67
2022/02/16 07:39:10;;;;;;;73.05;41.05;;;;;;;4.45;62.38;94996.53;5087104;28;20703;-67
2022/02/16 07:41:36;;;;;;;71.45;40.58;;;;;;;4.53;61.85;94998.69;5087763;28;20044;-67
2022/02/16 07:44:01;;;;;;;76.03;41.20;;;;;;;4.53;61.77;94996.13;5067122;28;20023;-67
2022/02/16 07:46:27;;;;;;;78.70;41.20;;;;;;;4.51;61.77;94988.47;5083888;28;20050;-67
2022/02/16 07:48:52;;;;;;;90.22;43.35;;;;;;;4.70;61.59;94999.38;5087304;28;20063;-67
2022/02/16 07:51:18;;;;;;;92.38;46.05;;;;;;;4.74;61.05;95000.06;5087714;28;20028;-67
2022/02/16 07:53:43;;;;;;;85.15;42.40;;;;;;;4.80;61.07;94999.72;5082890;28;20032;-67
2022/02/16 07:56:09;;;;;;;84.55;41.35;;;;;;;4.91;61.53;94997.34;5078255;28;20236;-67
2022/02/16 07:58:34;;;;;;;80.22;41.55;;;;;;;4.98;61.59;95002.13;5081420;28;20417;-67
2022/02/16 08:01:00;;;;;;;66.95;36.75;;;;;;;5.01;60.82;95000.19;5082074;28;20028;-67
2022/02/16 08:03:25;;;;;;;55.40;31.90;;;;;;;5.07;60.33;94994.72;5082715;28;20036;-67
2022/02/16 08:05:51;;;;;;;54.03;31.27;;;;;;;5.19;59.87;95003.47;5084272;28;20044;-68
2022/02/16 08:08:17;;;;;;;56.83;32.83;;;;;;;5.26;59.99;94994.44;5081777;28;20036;-67
2022/02/16 08:10:48;;;;;;;55.40;32.47;;;;;;;5.65;59.36;94995.56;5088481;28;20043;-67
2022/02/16 08:13:15;;;;;;;53.75;29.70;;;;;;;5.78;58.83;94975.84;5085397;28;20032;-67
2022/02/16 08:15:40;;;;;;;46.67;28.08;;;;;;;6.09;57.66;94983.47;5090122;28;20069;-67
2022/02/16 08:18:06;;;;;;;49.55;27.77;;;;;;;6.23;56.65;94973.13;5090454;28;20024;-69
2022/02/16 08:20:31;;;;;;;45.58;29.10;;;;;;;6.35;56.80;94974.09;5066773;28;20078;-68
2022/02/16 08:22:56;;;;;;;54.08;31.40;;;;;;;6.42;55.98;94965.88;5088975;28;20051;-68
2022/02/16 08:25:22;;;;;;;54.50;31.33;;;;;;;6.58;56.08;94977.78;5086489;28;20445;-68
2022/02/16 08:27:47;;;;;;;62.50;32.95;;;;;;;6.57;55.36;94976.94;5086627;28;20047;-68
2022/02/16 08:30:13;;;;;;;57.92;31.88;;;;;;;6.52;55.07;94976.44;5087387;28;20062;-68
2022/02/16 08:32:39;;;;;;;60.10;34.42;;;;;;;6.64;55.65;94970.47;5087061;28;20486;-69
2022/02/16 08:35:09;;;;;;;56.15;32.95;;;;;;;6.68;55.11;94969.34;5052096;28;20493;-68
2022/02/16 08:37:35;;;;;;;68.38;34.42;;;;;;;6.77;54.97;94975.69;5070350;28;21084;-69
2022/02/16 08:40:01;;;;;;;61.33;35.88;;;;;;;6.96;55.02;94975.28;5085735;28;20028;-67
2022/02/16 08:42:26;;;;;;;61.20;36.17;;;;;;;7.02;54.50;94976.63;5087386;28;20036;-67
2022/02/16 08:44:52;;;;;;;57.30;32.72;;;;;;;7.14;53.56;94974.06;5087474;28;20031;-68
2022/02/16 08:47:17;;;;;;;52.88;31.42;;;;;;;7.23;53.58;94971.81;5088116;28;20093;-67
2022/02/16 08:49:44;;;;;;;57.88;30.75;;;;;;;7.24;53.16;94966.50;5087387;28;20020;-67
2022/02/16 08:52:10;;;;;;;61.63;34.05;;;;;;;7.22;53.34;94968.41;5070367;28;20094;-68
2022/02/16 08:54:36;;;;;;;68.65;36.45;;;;;;;7.19;53.60;94962.59;5082555;28;20316;-68
2022/02/16 08:57:03;;;;;;;58.47;33.95;;;;;;;7.28;53.12;94954.25;5087808;28;20024;-68
2022/02/16 08:59:29;;;;;;;58.88;31.48;;;;;;;7.37;53.04;94953.59;5080862;28;20078;-68
2022/02/16 09:01:54;;;;;;;57.22;30.98;;;;;;;7.42;52.88;94945.53;5070107;28;20455;-68
2022/02/16 09:04:20;;;;;;;57.42;31.60;;;;;;;7.58;52.67;94936.63;5085538;28;20490;-68
2022/02/16 09:07:27;;;;;;;52.20;27.98;;;;;;;7.63;51.77;94941.47;5088918;28;20036;-67
2022/02/16 09:09:33;;;;;;;53.13;30.52;;;;;;;7.63;51.64;94935.47;5071911;28;20043;-68
2022/02/16 09:11:59;;;;;;;52.55;30.45;;;;;;;7.74;51.90;94927.78;5086479;28;20073;-67
2022/02/16 09:14:25;;;;;;;47.63;26.85;;;;;;;7.91;51.39;94932.63;5068225;28;20119;-68
2022/02/16 09:16:50;;;;;;;53.13;28.08;;;;;;;7.88;51.28;94927.66;5087182;28;20060;-67
2022/02/16 09:19:15;;;;;;;43.28;25.95;;;;;;;7.93;51.24;94928.16;5086483;28;20016;-68
2022/02/16 09:21:41;;;;;;;49.80;28.67;;;;;;;7.95;51.72;94928.88;5086046;28;20029;-68
2022/02/16 09:24:06;;;;;;;54.03;29.65;;;;;;;8.03;51.69;94931.75;5085095;28;20024;-68
2022/02/16 09:26:33;;;;;;;54.63;31.55;;;;;;;8.06;52.18;94928.13;5086181;28;20068;-67
2022/02/16 09:28:59;;;;;;;56.38;30.23;;;;;;;8.02;52.00;94934.44;5084117;28;20024;-68
2022/02/16 09:31:24;;;;;;;52.22;30.27;;;;;;;7.99;53.13;94929.50;5085051;28;20031;-67
2022/02/16 09:33:51;;;;;;;59.75;31.17;;;;;;;7.95;53.41;94918.53;5084644;28;20024;-69
2022/02/16 09:36:16;;;;;;;52.88;29.73;;;;;;;7.99;53.35;94922.53;5087903;28;20027;-68
2022/02/16 09:38:42;;;;;;;53.47;30.95;;;;;;;8.02;53.00;94927.53;5069155;28;20032;-68
2022/02/16 09:41:08;;;;;;;48.50;27.30;;;;;;;7.96;52.42;94919.34;5084252;28;20039;-67
2022/02/16 09:43:33;;;;;;;56.75;31.58;;;;;;;7.89;53.29;94915.56;5085102;28;20089;-68
2022/02/16 09:45:59;;;;;;;56.03;33.30;;;;;;;7.89;54.32;94921.56;5064885;28;20040;-67
2022/02/16 09:48:24;;;;;;;53.97;31.20;;;;;;;7.89;54.17;94915.56;5087869;28;20081;-67
2022/02/16 09:50:51;;;;;;;51.83;30.42;;;;;;;7.90;54.21;94910.28;5084980;28;20587;-68
2022/02/16 09:53:16;;;;;;;57.80;32.75;;;;;;;7.96;53.85;94917.59;5085792;28;20109;-67
2022/02/16 09:55:42;;;;;;;65.40;36.60;;;;;;;7.99;53.13;94914.78;5084524;28;20564;-68
2022/02/16 09:58:07;;;;;;;57.63;32.50;;;;;;;7.97;53.81;94898.56;5085445;28;20433;-68
2022/02/16 10:00:33;;;;;;;56.80;32.10;;;;;;;8.01;53.57;94912.09;5068509;28;20118;-68
2022/02/16 10:03:08;;;;;;;53.42;31.10;;;;;;;8.03;53.58;94915.41;5068699;28;20525;-68
2022/02/16 10:05:35;;;;;;;57.10;32.08;;;;;;;8.12;53.07;94911.34;5065461;28;20052;-68
2022/02/16 10:08:00;;;;;;;56.55;32.92;;;;;;;8.17;52.75;94896.31;5068709;28;20028;-68
2022/02/16 10:10:29;;;;;;;49.65;29.67;;;;;;;8.22;52.71;94899.41;5085303;28;20031;-68
2022/02/16 10:12:56;;;;;;;57.35;31.65;;;;;;;8.19;53.33;94899.59;5084837;28;20028;-67
2022/02/16 10:15:38;;;;;;;52.03;30.83;;;;;;;8.18;53.33;94892.78;5080307;28;20044;-68
2022/02/16 10:18:06;;;;;;;49.38;29.50;;;;;;;8.17;53.08;94889.38;5086522;28;20044;-68
2022/02/16 10:20:31;;;;;;;49.63;29.92;;;;;;;8.28;53.04;94888.59;5085261;28;20031;-68
2022/02/16 10:22:57;;;;;;;51.20;30.92;;;;;;;8.39;52.40;94880.91;5085641;28;20032;-68
2022/02/16 10:25:27;;;;;;;55.47;33.35;;;;;;;8.43;53.22;94876.31;5065000;28;20490;-68
2022/02/16 10:28:05;;;;;;;58.10;34.17;;;;;;;8.49;52.63;94871.50;5086363;28;20044;-69
2022/02/16 10:30:30;;;;;;;53.55;31.40;;;;;;;8.55;52.19;94869.41;5080709;28;20515;-68
2022/02/16 10:33:18;;;;;;;55.88;31.02;;;;;;;8.62;52.50;94852.50;5077772;28;20095;-68
2022/02/16 10:35:44;;;;;;;55.88;31.50;;;;;;;8.77;52.29;94863.47;5078913;28;20038;-67
2022/02/16 10:38:10;;;;;;;133.68;58.70;;;;;;;8.84;51.44;94864.66;5047313;28;20082;-67
2022/02/16 10:40:35;;;;;;;112.13;54.40;;;;;;;8.86;51.20;94853.25;5074678;28;20039;-67
2022/02/16 10:43:01;;;;;;;110.07;56.80;;;;;;;8.94;51.03;94843.16;5062073;28;20280;-67
2022/02/16 10:45:28;;;;;;;67.30;35.00;;;;;;;9.00;49.70;94828.03;5081225;28;20500;-68
2022/02/16 10:47:54;;;;;;;83.75;41.70;;;;;;;9.09;49.68;94829.94;5064939;28;20036;-68
2022/02/16 10:50:24;;;;;;;70.32;39.30;;;;;;;9.23;49.92;94834.06;5083017;28;20109;-68
2022/02/16 10:52:55;;;;;;;56.83;31.73;;;;;;;9.32;49.82;94826.41;5078988;28;20395;-68
2022/02/16 10:55:35;;;;;;;56.33;30.52;;;;;;;9.40;48.16;94818.03;5075875;28;20365;-68
2022/02/16 10:58:02;;;;;;;47.95;27.75;;;;;;;9.39;48.35;94806.84;5073766;28;20090;-67
2022/02/16 11:00:30;;;;;;;48.85;28.45;;;;;;;9.44;47.51;94813.44;5077970;28;20036;-68
2022/02/16 11:02:55;;;;;;;44.35;26.55;;;;;;;9.56;47.92;94802.09;5063527;28;20052;-68
2022/02/16 11:05:20;;;;;;;50.92;32.83;;;;;;;9.65;48.18;94797.97;5085089;28;20097;-68
2022/02/16 11:07:46;;;;;;;48.55;27.27;;;;;;;9.68;47.73;94789.94;5061171;28;20028;-67
2022/02/16 11:10:11;;;;;;;49.10;27.60;;;;;;;9.76;47.27;94795.34;5043763;28;20055;-67
2022/02/16 11:12:37;;;;;;;49.97;27.10;;;;;;;9.78;46.93;94789.06;5085029;28;20036;-68
2022/02/16 11:15:02;;;;;;;52.88;29.45;;;;;;;9.76;47.36;94775.41;5085060;28;20056;-68
2022/02/16 11:17:28;;;;;;;56.53;32.28;;;;;;;9.85;48.61;94774.66;5085884;28;20107;-69